createdAt,value
2018-09-26T00:00:16.467Z,0
2018-09-26T00:01:16.411Z,0
2018-09-26T00:02:16.441Z,0
2018-09-26T00:03:16.415Z,0
2018-09-26T00:04:16.376Z,0
2018-09-26T00:05:16.481Z,0
2018-09-26T00:06:16.421Z,0
2018-09-26T00:07:16.407Z,0
2018-09-26T00:08:16.390Z,0
2018-09-26T00:09:16.488Z,0
2018-09-26T00:10:16.381Z,0
2018-09-26T00:11:16.354Z,0
2018-09-26T00:12:16.468Z,0
2018-09-26T00:13:16.389Z,0
2018-09-26T00:14:16.401Z,0
2018-09-26T00:15:16.461Z,0
2018-09-26T00:16:16.430Z,0
2018-09-26T00:17:16.462Z,0
2018-09-26T00:18:16.390Z,0
2018-09-26T00:19:16.462Z,0
2018-09-26T00:20:16.395Z,0
2018-09-26T00:21:16.393Z,0
2018-09-26T00:22:16.471Z,0
2018-09-26T00:23:16.472Z,0
2018-09-26T00:24:16.463Z,0
2018-09-26T00:25:16.435Z,0
2018-09-26T00:26:16.423Z,0
2018-09-26T00:27:16.458Z,0
2018-09-26T00:28:16.459Z,0
2018-09-26T00:29:16.470Z,0
2018-09-26T00:30:16.435Z,0
2018-09-26T00:31:16.347Z,0
2018-09-26T00:32:16.491Z,0
2018-09-26T00:33:16.408Z,0
2018-09-26T00:34:16.429Z,0
2018-09-26T00:35:16.419Z,0
2018-09-26T00:36:16.539Z,0
2018-09-26T00:37:16.487Z,0
2018-09-26T00:38:16.428Z,0
2018-09-26T00:39:16.390Z,0
2018-09-26T00:40:16.436Z,0
2018-09-26T00:41:16.526Z,0
2018-09-26T00:42:16.495Z,0
2018-09-26T00:43:16.441Z,0
2018-09-26T00:44:16.450Z,0
2018-09-26T00:45:16.536Z,0
2018-09-26T00:46:16.485Z,0
2018-09-26T00:47:16.488Z,0
2018-09-26T00:48:16.490Z,0
2018-09-26T00:49:16.495Z,0
2018-09-26T00:50:16.417Z,0
2018-09-26T00:51:16.605Z,0
2018-09-26T00:52:16.430Z,0
2018-09-26T00:53:16.498Z,0
2018-09-26T00:54:16.486Z,0
2018-09-26T00:55:16.498Z,0
2018-09-26T00:56:16.410Z,0
2018-09-26T00:57:16.486Z,0
2018-09-26T00:58:16.409Z,0
2018-09-26T00:59:16.407Z,0
2018-09-26T01:00:16.487Z,0
2018-09-26T01:01:16.413Z,0
2018-09-26T01:02:16.483Z,0
2018-09-26T01:03:16.414Z,0
2018-09-26T01:04:16.407Z,0
2018-09-26T01:05:16.483Z,0
2018-09-26T01:06:16.465Z,0
2018-09-26T01:07:16.394Z,0
2018-09-26T01:08:16.498Z,0
2018-09-26T01:09:16.511Z,0
2018-09-26T01:10:16.417Z,0
2018-09-26T01:11:16.450Z,0
2018-09-26T01:12:16.457Z,0
2018-09-26T01:13:16.441Z,0
2018-09-26T01:14:16.497Z,0
2018-09-26T01:15:16.472Z,0
2018-09-26T01:16:16.536Z,0
2018-09-26T01:17:16.450Z,0
2018-09-26T01:18:16.496Z,0
2018-09-26T01:19:16.506Z,0
2018-09-26T01:20:16.483Z,0
2018-09-26T01:21:16.571Z,0
2018-09-26T01:22:16.471Z,0
2018-09-26T01:23:16.428Z,0
2018-09-26T01:24:16.474Z,0
2018-09-26T01:25:16.513Z,0
2018-09-26T01:26:16.532Z,0
2018-09-26T01:27:16.487Z,0
2018-09-26T01:28:16.461Z,0
2018-09-26T01:29:16.535Z,0
2018-09-26T01:30:16.537Z,0
2018-09-26T01:31:16.485Z,0
2018-09-26T01:32:16.506Z,0
2018-09-26T01:33:16.533Z,0
2018-09-26T01:34:16.474Z,0
2018-09-26T01:35:16.414Z,0
2018-09-26T01:36:16.514Z,0
2018-09-26T01:37:16.451Z,0
2018-09-26T01:38:16.407Z,0
2018-09-26T01:39:16.530Z,0
2018-09-26T01:40:16.444Z,0
2018-09-26T01:41:16.453Z,0
2018-09-26T01:42:16.528Z,0
2018-09-26T01:43:16.542Z,0
2018-09-26T01:44:16.464Z,0
2018-09-26T01:45:16.441Z,0
2018-09-26T01:46:16.518Z,0
2018-09-26T01:47:16.440Z,0
2018-09-26T01:48:16.576Z,0
2018-09-26T01:49:16.522Z,0
2018-09-26T01:50:16.557Z,0
2018-09-26T01:51:16.499Z,0
2018-09-26T01:52:16.593Z,0
2018-09-26T01:53:16.489Z,0
2018-09-26T01:54:16.559Z,0
2018-09-26T01:55:16.502Z,0
2018-09-26T01:56:16.538Z,0
2018-09-26T01:57:16.461Z,0
2018-09-26T01:58:16.542Z,0
2018-09-26T01:59:16.475Z,0
2018-09-26T02:00:16.544Z,0
2018-09-26T02:01:16.534Z,0
2018-09-26T02:02:16.563Z,0
2018-09-26T02:03:16.494Z,0
2018-09-26T02:04:16.545Z,0
2018-09-26T02:05:16.537Z,0
2018-09-26T02:06:16.450Z,0
2018-09-26T02:07:16.569Z,0
2018-09-26T02:08:16.475Z,0
2018-09-26T02:09:16.475Z,0
2018-09-26T02:10:16.564Z,0
2018-09-26T02:11:16.567Z,0
2018-09-26T02:12:16.513Z,0
2018-09-26T02:13:16.570Z,0
2018-09-26T02:14:16.561Z,0
2018-09-26T02:15:16.513Z,0
2018-09-26T02:16:16.556Z,0
2018-09-26T02:17:28.868Z,0
2018-09-26T02:18:16.560Z,0
2018-09-26T02:19:16.538Z,0
2018-09-26T02:20:16.543Z,0
2018-09-26T02:21:16.440Z,0
2018-09-26T02:22:16.513Z,0
2018-09-26T02:23:16.504Z,0
2018-09-26T02:24:16.473Z,0
2018-09-26T02:25:16.518Z,0
2018-09-26T02:26:16.418Z,0
2018-09-26T02:27:16.507Z,0
2018-09-26T02:28:16.510Z,0
2018-09-26T02:29:16.409Z,0
2018-09-26T02:30:16.471Z,0
2018-09-26T02:31:16.541Z,0
2018-09-26T02:32:16.529Z,0
2018-09-26T02:33:16.542Z,0
2018-09-26T02:34:16.517Z,0
2018-09-26T02:35:16.586Z,0
2018-09-26T02:36:16.557Z,0
2018-09-26T02:37:16.445Z,0
2018-09-26T02:38:16.558Z,0
2018-09-26T02:39:16.570Z,0
2018-09-26T02:40:16.549Z,0
2018-09-26T02:41:16.504Z,0
2018-09-26T02:42:16.505Z,0
2018-09-26T02:43:16.587Z,0
2018-09-26T02:44:16.571Z,0
2018-09-26T02:45:16.444Z,0
2018-09-26T02:46:16.521Z,0
2018-09-26T02:47:16.534Z,0
2018-09-26T02:48:16.534Z,0
2018-09-26T02:49:16.573Z,0
2018-09-26T02:50:16.572Z,0
2018-09-26T02:51:16.590Z,0
2018-09-26T02:52:16.534Z,0
2018-09-26T02:53:16.607Z,0
2018-09-26T02:54:16.528Z,0
2018-09-26T02:55:16.543Z,0
2018-09-26T02:56:16.525Z,0
2018-09-26T02:57:16.566Z,0
2018-09-26T02:58:16.587Z,0
2018-09-26T02:59:16.473Z,0
2018-09-26T03:00:16.496Z,0
2018-09-26T03:01:16.546Z,0
2018-09-26T03:02:16.533Z,0
2018-09-26T03:03:16.558Z,0
2018-09-26T03:04:16.563Z,0
2018-09-26T03:05:16.493Z,0
2018-09-26T03:06:16.518Z,0
2018-09-26T03:07:16.476Z,0
2018-09-26T03:08:16.578Z,0
2018-09-26T03:09:16.549Z,0
2018-09-26T03:10:16.597Z,0
2018-09-26T03:11:16.540Z,0
2018-09-26T03:12:16.556Z,0
2018-09-26T03:13:16.501Z,0
2018-09-26T03:14:16.558Z,0
2018-09-26T03:15:16.602Z,0
2018-09-26T03:16:16.502Z,0
2018-09-26T03:17:16.559Z,0
2018-09-26T03:18:16.584Z,0
2018-09-26T03:19:16.564Z,0
2018-09-26T03:20:16.626Z,0
2018-09-26T03:21:16.560Z,0
2018-09-26T03:22:16.657Z,0
2018-09-26T03:23:16.596Z,0
2018-09-26T03:24:16.570Z,0
2018-09-26T03:25:16.588Z,0
2018-09-26T03:26:16.516Z,0
2018-09-26T03:27:16.583Z,0
2018-09-26T03:28:16.522Z,0
2018-09-26T03:29:16.589Z,0
2018-09-26T03:30:16.519Z,0
2018-09-26T03:31:16.594Z,0
2018-09-26T03:32:16.590Z,0
2018-09-26T03:33:16.524Z,0
2018-09-26T03:34:16.589Z,0
2018-09-26T03:35:16.612Z,0
2018-09-26T03:36:16.601Z,0
2018-09-26T03:37:16.599Z,0
2018-09-26T03:38:16.617Z,0
2018-09-26T03:39:16.570Z,0
2018-09-26T03:40:16.607Z,0
2018-09-26T03:41:16.607Z,0
2018-09-26T03:42:16.529Z,0
2018-09-26T03:43:16.607Z,0
2018-09-26T03:44:16.533Z,0
2018-09-26T03:45:16.535Z,0
2018-09-26T03:46:16.599Z,0
2018-09-26T03:47:16.613Z,0
2018-09-26T03:48:16.625Z,0
2018-09-26T03:49:16.523Z,0
2018-09-26T03:50:16.535Z,0
2018-09-26T03:51:16.618Z,0
2018-09-26T03:52:16.552Z,0
2018-09-26T03:53:16.647Z,0
2018-09-26T03:54:16.607Z,0
2018-09-26T03:55:16.647Z,0
2018-09-26T03:56:16.548Z,0
2018-09-26T03:57:16.609Z,0
2018-09-26T03:58:16.619Z,0
2018-09-26T03:59:16.544Z,0
2018-09-26T04:00:16.617Z,0
2018-09-26T04:01:16.623Z,0
2018-09-26T04:02:16.572Z,0
2018-09-26T04:03:16.565Z,0
2018-09-26T04:04:16.555Z,0
2018-09-26T04:05:16.626Z,0
2018-09-26T04:06:16.642Z,0
2018-09-26T04:07:16.582Z,0
2018-09-26T04:08:16.643Z,0
2018-09-26T04:09:16.589Z,0
2018-09-26T04:10:16.619Z,0
2018-09-26T04:11:16.539Z,0
2018-09-26T04:12:16.622Z,0
2018-09-26T04:13:16.716Z,0
2018-09-26T04:14:16.594Z,0
2018-09-26T04:15:16.651Z,0
2018-09-26T04:16:16.562Z,0
2018-09-26T04:17:16.627Z,0
2018-09-26T04:18:16.563Z,0
2018-09-26T04:19:16.566Z,0
2018-09-26T04:20:16.568Z,0
2018-09-26T04:21:16.560Z,0
2018-09-26T04:22:16.634Z,0
2018-09-26T04:23:16.632Z,0
2018-09-26T04:24:16.579Z,0
2018-09-26T04:25:16.567Z,0
2018-09-26T04:26:16.617Z,0
2018-09-26T04:27:16.748Z,0
2018-09-26T04:28:16.633Z,0
2018-09-26T04:29:16.596Z,0
2018-09-26T04:30:16.836Z,0
2018-09-26T04:31:16.669Z,0
2018-09-26T04:32:16.652Z,0
2018-09-26T04:33:16.987Z,0
2018-09-26T04:34:16.637Z,0
2018-09-26T04:35:16.676Z,0
2018-09-26T04:36:16.592Z,0
2018-09-26T04:37:16.522Z,0
2018-09-26T04:38:16.598Z,0
2018-09-26T04:39:16.577Z,0
2018-09-26T04:40:16.652Z,0
2018-09-26T04:41:16.646Z,0
2018-09-26T04:42:16.669Z,0
2018-09-26T04:43:16.710Z,0
2018-09-26T04:44:16.658Z,0
2018-09-26T04:45:16.652Z,0
2018-09-26T04:46:16.650Z,0
2018-09-26T04:47:16.667Z,0
2018-09-26T04:48:16.587Z,0
2018-09-26T04:49:16.616Z,0
2018-09-26T04:50:16.620Z,0
2018-09-26T04:51:16.568Z,0
2018-09-26T04:52:16.609Z,0
2018-09-26T04:53:16.609Z,0
2018-09-26T04:54:16.594Z,0
2018-09-26T04:55:16.672Z,0
2018-09-26T04:56:16.585Z,0
2018-09-26T04:57:16.586Z,0
2018-09-26T04:58:16.575Z,0
2018-09-26T04:59:16.725Z,0
2018-09-26T05:00:16.656Z,0
2018-09-26T05:01:16.590Z,0
2018-09-26T05:02:16.590Z,0
2018-09-26T05:03:16.662Z,0
2018-09-26T05:04:16.664Z,0
2018-09-26T05:05:16.603Z,0
2018-09-26T05:06:16.602Z,0
2018-09-26T05:07:16.682Z,0
2018-09-26T05:08:16.796Z,0
2018-09-26T05:09:16.628Z,0
2018-09-26T05:10:16.644Z,0
2018-09-26T05:11:16.700Z,0
2018-09-26T05:12:16.642Z,0
2018-09-26T05:13:16.566Z,0
2018-09-26T05:14:16.704Z,0
2018-09-26T05:15:16.633Z,0
2018-09-26T05:16:16.547Z,0
2018-09-26T05:17:16.624Z,0
2018-09-26T05:18:16.673Z,0
2018-09-26T05:19:16.680Z,0
2018-09-26T05:20:16.605Z,0
2018-09-26T05:21:16.601Z,0
2018-09-26T05:22:16.607Z,0
2018-09-26T05:23:16.774Z,0
2018-09-26T05:24:16.611Z,0
2018-09-26T05:25:16.616Z,0
2018-09-26T05:26:16.617Z,0
2018-09-26T05:27:16.613Z,0
2018-09-26T05:28:16.675Z,0
2018-09-26T05:29:16.610Z,0
2018-09-26T05:30:16.631Z,0
2018-09-26T05:31:16.679Z,0
2018-09-26T05:32:16.693Z,0
2018-09-26T05:33:16.638Z,0
2018-09-26T05:34:16.614Z,0
2018-09-26T05:35:16.619Z,0
2018-09-26T05:36:16.580Z,0
2018-09-26T05:37:16.652Z,0
2018-09-26T05:38:16.682Z,0
2018-09-26T05:39:16.704Z,0
2018-09-26T05:40:16.647Z,0
2018-09-26T05:41:16.584Z,15
2018-09-26T05:42:16.719Z,18
2018-09-26T05:43:16.765Z,20
2018-09-26T05:44:16.695Z,21
2018-09-26T05:45:16.707Z,23
2018-09-26T05:46:16.721Z,25
2018-09-26T05:47:16.669Z,21
2018-09-26T05:48:16.590Z,28
2018-09-26T05:49:16.590Z,30
2018-09-26T05:50:16.785Z,32
2018-09-26T05:51:16.658Z,33
2018-09-26T05:52:16.661Z,35
2018-09-26T05:53:16.760Z,35
2018-09-26T05:54:16.662Z,36
2018-09-26T05:55:16.711Z,37
2018-09-26T05:56:16.699Z,38
2018-09-26T05:57:16.701Z,38
2018-09-26T05:58:16.699Z,39
2018-09-26T05:59:16.656Z,41
2018-09-26T06:00:16.745Z,40
2018-09-26T06:01:16.735Z,41
2018-09-26T06:02:16.699Z,41
2018-09-26T06:03:16.715Z,42
2018-09-26T06:04:16.531Z,43
2018-09-26T06:05:16.686Z,44
2018-09-26T06:06:16.706Z,44
2018-09-26T06:07:16.684Z,46
2018-09-26T06:08:16.659Z,49
2018-09-26T06:09:16.655Z,50
2018-09-26T06:10:16.626Z,52
2018-09-26T06:11:16.721Z,53
2018-09-26T06:12:16.687Z,56
2018-09-26T06:13:16.735Z,58
2018-09-26T06:14:16.667Z,61
2018-09-26T06:15:16.717Z,62
2018-09-26T06:16:16.647Z,65
2018-09-26T06:17:16.654Z,67
2018-09-26T06:18:16.645Z,69
2018-09-26T06:19:16.721Z,71
2018-09-26T06:20:16.710Z,73
2018-09-26T06:21:16.643Z,75
2018-09-26T06:22:16.710Z,75
2018-09-26T06:23:16.714Z,77
2018-09-26T06:24:16.713Z,78
2018-09-26T06:25:16.714Z,83
2018-09-26T06:26:16.728Z,83
2018-09-26T06:27:16.729Z,85
2018-09-26T06:28:16.716Z,87
2018-09-26T06:29:16.714Z,88
2018-09-26T06:30:16.720Z,87
2018-09-26T06:31:16.721Z,90
2018-09-26T06:32:16.678Z,93
2018-09-26T06:33:16.659Z,93
2018-09-26T06:34:16.701Z,94
2018-09-26T06:35:16.740Z,99
2018-09-26T06:36:16.749Z,100
2018-09-26T06:37:16.686Z,100
2018-09-26T06:38:16.617Z,103
2018-09-26T06:39:16.721Z,104
2018-09-26T06:40:16.648Z,108
2018-09-26T06:41:16.643Z,108
2018-09-26T06:42:16.729Z,108
2018-09-26T06:43:16.716Z,111
2018-09-26T06:44:16.632Z,113
2018-09-26T06:45:16.640Z,115
2018-09-26T06:46:16.726Z,117
2018-09-26T06:47:16.664Z,118
2018-09-26T06:48:16.675Z,115
2018-09-26T06:49:16.668Z,71
2018-09-26T06:50:16.624Z,124
2018-09-26T06:51:16.693Z,125
2018-09-26T06:52:16.734Z,127
2018-09-26T06:53:16.616Z,128
2018-09-26T06:54:16.735Z,124
2018-09-26T06:55:16.683Z,131
2018-09-26T06:56:16.739Z,130
2018-09-26T06:57:16.772Z,133
2018-09-26T06:58:16.702Z,136
2018-09-26T06:59:16.698Z,141
2018-09-26T07:00:16.828Z,136
2018-09-26T07:01:16.774Z,150
2018-09-26T07:02:16.703Z,155
2018-09-26T07:03:16.679Z,152
2018-09-26T07:04:16.680Z,151
2018-09-26T07:05:16.712Z,159
2018-09-26T07:06:16.767Z,158
2018-09-26T07:07:16.763Z,159
2018-09-26T07:08:16.716Z,162
2018-09-26T07:09:16.770Z,163
2018-09-26T07:10:16.649Z,163
2018-09-26T07:11:16.723Z,162
2018-09-26T07:12:16.853Z,148
2018-09-26T07:13:16.750Z,154
2018-09-26T07:14:16.772Z,174
2018-09-26T07:15:16.746Z,177
2018-09-26T07:16:16.785Z,187
2018-09-26T07:17:16.770Z,189
2018-09-26T07:18:16.676Z,190
2018-09-26T07:19:16.727Z,197
2018-09-26T07:20:16.691Z,213
2018-09-26T07:21:16.741Z,232
2018-09-26T07:22:16.686Z,234
2018-09-26T07:23:16.650Z,248
2018-09-26T07:24:16.693Z,242
2018-09-26T07:25:16.674Z,232
2018-09-26T07:26:16.693Z,234
2018-09-26T07:27:16.749Z,230
2018-09-26T07:28:16.752Z,232
2018-09-26T07:29:16.749Z,226
2018-09-26T07:30:16.785Z,225
2018-09-26T07:31:16.757Z,224
2018-09-26T07:32:16.860Z,223
2018-09-26T07:33:16.778Z,226
2018-09-26T07:34:16.681Z,220
2018-09-26T07:35:16.761Z,217
2018-09-26T07:36:16.726Z,225
2018-09-26T07:37:16.705Z,230
2018-09-26T07:38:16.761Z,229
2018-09-26T07:39:16.723Z,230
2018-09-26T07:40:16.767Z,229
2018-09-26T07:41:16.671Z,229
2018-09-26T07:42:16.768Z,230
2018-09-26T07:43:16.674Z,228
2018-09-26T07:44:16.772Z,227
2018-09-26T07:45:16.771Z,234
2018-09-26T07:46:16.726Z,236
2018-09-26T07:47:16.785Z,240
2018-09-26T07:48:16.773Z,236
2018-09-26T07:49:16.678Z,241
2018-09-26T07:50:16.728Z,244
2018-09-26T07:51:16.736Z,253
2018-09-26T07:52:16.815Z,266
2018-09-26T07:53:16.760Z,277
2018-09-26T07:54:16.780Z,294
2018-09-26T07:55:16.743Z,291
2018-09-26T07:56:16.806Z,296
2018-09-26T07:57:16.811Z,329
2018-09-26T07:58:16.680Z,299
2018-09-26T07:59:16.816Z,287
2018-09-26T08:00:16.705Z,292
2018-09-26T08:01:16.823Z,307
2018-09-26T08:02:16.780Z,316
2018-09-26T08:03:16.783Z,332
2018-09-26T08:04:16.825Z,342
2018-09-26T08:05:16.756Z,358
2018-09-26T08:06:16.745Z,377
2018-09-26T08:07:16.713Z,379
2018-09-26T08:08:16.756Z,340
2018-09-26T08:09:16.710Z,347
2018-09-26T08:10:16.815Z,332
2018-09-26T08:11:16.883Z,347
2018-09-26T08:12:16.741Z,351
2018-09-26T08:13:16.789Z,354
2018-09-26T08:14:16.772Z,350
2018-09-26T08:15:16.750Z,347
2018-09-26T08:16:16.713Z,341
2018-09-26T08:17:16.792Z,340
2018-09-26T08:18:16.892Z,337
2018-09-26T08:19:16.816Z,331
2018-09-26T08:20:16.775Z,327
2018-09-26T08:21:16.716Z,331
2018-09-26T08:22:16.792Z,335
2018-09-26T08:23:16.828Z,345
2018-09-26T08:24:16.806Z,356
2018-09-26T08:25:16.758Z,354
2018-09-26T08:26:16.798Z,339
2018-09-26T08:27:16.818Z,323
2018-09-26T08:28:16.818Z,321
2018-09-26T08:29:16.752Z,326
2018-09-26T08:30:16.717Z,330
2018-09-26T08:31:16.840Z,334
2018-09-26T08:32:16.803Z,351
2018-09-26T08:33:16.817Z,376
2018-09-26T08:34:16.803Z,394
2018-09-26T08:35:16.761Z,406
2018-09-26T08:36:16.726Z,416
2018-09-26T08:37:16.778Z,417
2018-09-26T08:38:16.821Z,433
2018-09-26T08:39:16.746Z,417
2018-09-26T08:40:16.810Z,444
2018-09-26T08:41:16.744Z,432
2018-09-26T08:42:16.812Z,425
2018-09-26T08:43:16.828Z,426
2018-09-26T08:44:16.747Z,409
2018-09-26T08:45:16.812Z,421
2018-09-26T08:46:16.744Z,436
2018-09-26T08:47:16.834Z,423
2018-09-26T08:48:16.818Z,422
2018-09-26T08:49:16.823Z,430
2018-09-26T08:50:16.820Z,429
2018-09-26T08:51:16.818Z,429
2018-09-26T08:52:16.748Z,441
2018-09-26T08:53:16.933Z,283
2018-09-26T08:54:16.750Z,511
2018-09-26T08:55:16.817Z,534
2018-09-26T08:56:16.840Z,544
2018-09-26T08:57:16.725Z,566
2018-09-26T08:58:16.825Z,566
2018-09-26T08:59:16.820Z,580
2018-09-26T09:00:16.780Z,556
2018-09-26T09:01:16.773Z,536
2018-09-26T09:02:16.745Z,533
2018-09-26T09:03:16.849Z,537
2018-09-26T09:04:16.742Z,524
2018-09-26T09:05:16.854Z,537
2018-09-26T09:06:16.755Z,527
2018-09-26T09:07:16.809Z,551
2018-09-26T09:08:16.856Z,550
2018-09-26T09:09:16.835Z,495
2018-09-26T09:10:16.796Z,489
2018-09-26T09:11:16.856Z,496
2018-09-26T09:12:16.868Z,477
2018-09-26T09:13:16.859Z,453
2018-09-26T09:14:16.921Z,452
2018-09-26T09:15:16.814Z,462
2018-09-26T09:16:16.780Z,482
2018-09-26T09:17:16.732Z,492
2018-09-26T09:18:16.849Z,518
2018-09-26T09:19:16.800Z,539
2018-09-26T09:20:16.871Z,534
2018-09-26T09:21:16.756Z,552
2018-09-26T09:22:16.797Z,584
2018-09-26T09:23:16.868Z,582
2018-09-26T09:24:16.850Z,556
2018-09-26T09:25:16.810Z,567
2018-09-26T09:26:16.929Z,606
2018-09-26T09:27:16.863Z,603
2018-09-26T09:28:16.819Z,641
2018-09-26T09:29:16.787Z,662
2018-09-26T09:30:16.820Z,666
2018-09-26T09:31:16.854Z,692
2018-09-26T09:32:16.921Z,680
2018-09-26T09:33:16.868Z,666
2018-09-26T09:34:16.813Z,726
2018-09-26T09:35:16.884Z,705
2018-09-26T09:36:16.873Z,690
2018-09-26T09:37:16.767Z,674
2018-09-26T09:38:16.846Z,683
2018-09-26T09:39:16.862Z,640
2018-09-26T09:40:16.781Z,651
2018-09-26T09:41:16.847Z,706
2018-09-26T09:42:16.809Z,709
2018-09-26T09:43:16.841Z,670
2018-09-26T09:44:16.893Z,626
2018-09-26T09:45:16.798Z,675
2018-09-26T09:46:16.854Z,666
2018-09-26T09:47:16.895Z,655
2018-09-26T09:48:16.756Z,680
2018-09-26T09:49:16.853Z,710
2018-09-26T09:50:16.843Z,699
2018-09-26T09:51:16.922Z,706
2018-09-26T09:52:16.842Z,687
2018-09-26T09:53:17.049Z,675
2018-09-26T09:54:16.830Z,696
2018-09-26T09:55:16.868Z,722
2018-09-26T09:56:16.918Z,734
2018-09-26T09:57:16.870Z,724
2018-09-26T09:58:16.861Z,721
2018-09-26T09:59:16.800Z,729
2018-09-26T10:00:16.866Z,752
2018-09-26T10:01:16.803Z,750
2018-09-26T10:02:17.015Z,732
2018-09-26T10:03:16.807Z,725
2018-09-26T10:04:16.812Z,701
2018-09-26T10:05:16.803Z,701
2018-09-26T10:06:16.807Z,700
2018-09-26T10:07:16.914Z,677
2018-09-26T10:08:16.799Z,659
2018-09-26T10:09:16.869Z,647
2018-09-26T10:10:16.882Z,621
2018-09-26T10:11:16.844Z,601
2018-09-26T10:12:16.849Z,673
2018-09-26T10:13:16.803Z,603
2018-09-26T10:14:16.887Z,544
2018-09-26T10:15:16.820Z,539
2018-09-26T10:16:16.814Z,448
2018-09-26T10:17:16.939Z,380
2018-09-26T10:18:16.858Z,373
2018-09-26T10:19:16.844Z,424
2018-09-26T10:20:16.877Z,434
2018-09-26T10:21:16.919Z,405
2018-09-26T10:22:16.916Z,507
2018-09-26T10:23:16.781Z,510
2018-09-26T10:24:16.924Z,572
2018-09-26T10:25:16.903Z,614
2018-09-26T10:26:16.916Z,599
2018-09-26T10:27:16.868Z,586
2018-09-26T10:28:16.853Z,545
2018-09-26T10:29:16.843Z,528
2018-09-26T10:30:16.946Z,556
2018-09-26T10:31:16.907Z,541
2018-09-26T10:32:16.982Z,571
2018-09-26T10:33:16.791Z,639
2018-09-26T10:34:16.860Z,623
2018-09-26T10:35:16.914Z,642
2018-09-26T10:36:16.923Z,614
2018-09-26T10:37:16.796Z,581
2018-09-26T10:38:16.904Z,526
2018-09-26T10:39:16.865Z,631
2018-09-26T10:40:16.841Z,668
2018-09-26T10:41:16.836Z,690
2018-09-26T10:42:16.853Z,643
2018-09-26T10:43:16.930Z,685
2018-09-26T10:44:16.846Z,687
2018-09-26T10:45:16.871Z,674
2018-09-26T10:46:16.915Z,671
2018-09-26T10:47:16.914Z,625
2018-09-26T10:48:16.857Z,662
2018-09-26T10:49:16.923Z,635
2018-09-26T10:50:16.847Z,611
2018-09-26T10:51:16.849Z,492
2018-09-26T10:52:16.901Z,587
2018-09-26T10:53:16.943Z,548
2018-09-26T10:54:16.874Z,606
2018-09-26T10:55:16.863Z,622
2018-09-26T10:56:16.910Z,578
2018-09-26T10:57:16.836Z,547
2018-09-26T10:58:16.771Z,636
2018-09-26T10:59:16.773Z,649
2018-09-26T11:00:16.868Z,666
2018-09-26T11:01:16.865Z,631
2018-09-26T11:02:16.909Z,576
2018-09-26T11:03:16.786Z,454
2018-09-26T11:04:16.818Z,458
2018-09-26T11:05:16.775Z,444
2018-09-26T11:06:16.861Z,425
2018-09-26T11:07:16.811Z,428
2018-09-26T11:08:16.907Z,491
2018-09-26T11:09:16.942Z,526
2018-09-26T11:10:17.002Z,588
2018-09-26T11:11:16.913Z,520
2018-09-26T11:12:16.956Z,586
2018-09-26T11:13:16.954Z,529
2018-09-26T11:14:16.954Z,556
2018-09-26T11:15:17.064Z,604
2018-09-26T11:16:16.867Z,586
2018-09-26T11:17:16.896Z,520
2018-09-26T11:18:16.902Z,553
2018-09-26T11:19:16.962Z,528
2018-09-26T11:20:16.922Z,572
2018-09-26T11:21:16.894Z,601
2018-09-26T11:22:16.939Z,564
2018-09-26T11:23:16.829Z,576
2018-09-26T11:24:16.883Z,581
2018-09-26T11:25:16.941Z,538
2018-09-26T11:26:16.918Z,529
2018-09-26T11:27:16.928Z,581
2018-09-26T11:28:16.914Z,578
2018-09-26T11:29:16.866Z,600
2018-09-26T11:30:16.863Z,571
2018-09-26T11:31:16.866Z,597
2018-09-26T11:32:16.940Z,561
2018-09-26T11:33:17.014Z,529
2018-09-26T11:34:16.916Z,551
2018-09-26T11:35:16.869Z,572
2018-09-26T11:36:16.935Z,595
2018-09-26T11:37:16.937Z,610
2018-09-26T11:38:17.004Z,599
2018-09-26T11:39:16.996Z,541
2018-09-26T11:40:16.927Z,596
2018-09-26T11:41:16.911Z,650
2018-09-26T11:42:16.872Z,646
2018-09-26T11:43:16.973Z,644
2018-09-26T11:44:16.890Z,622
2018-09-26T11:45:16.940Z,659
2018-09-26T11:46:16.968Z,682
2018-09-26T11:47:16.901Z,707
2018-09-26T11:48:16.946Z,726
2018-09-26T11:49:16.879Z,711
2018-09-26T11:50:16.922Z,660
2018-09-26T11:51:16.886Z,656
2018-09-26T11:52:16.959Z,649
2018-09-26T11:53:16.883Z,654
2018-09-26T11:54:16.878Z,624
2018-09-26T11:55:16.953Z,547
2018-09-26T11:56:16.900Z,493
2018-09-26T11:57:16.880Z,468
2018-09-26T11:58:17.027Z,471
2018-09-26T11:59:16.892Z,460
2018-09-26T12:00:16.974Z,528
2018-09-26T12:01:16.974Z,555
2018-09-26T12:02:16.971Z,533
2018-09-26T12:03:16.970Z,539
2018-09-26T12:04:16.987Z,591
2018-09-26T12:05:16.981Z,653
2018-09-26T12:06:16.935Z,652
2018-09-26T12:07:17.015Z,656
2018-09-26T12:08:16.936Z,623
2018-09-26T12:09:16.985Z,637
2018-09-26T12:10:16.920Z,633
2018-09-26T12:11:16.949Z,608
2018-09-26T12:12:16.947Z,597
2018-09-26T12:13:16.927Z,589
2018-09-26T12:14:16.871Z,559
2018-09-26T12:15:16.885Z,528
2018-09-26T12:16:17.038Z,538
2018-09-26T12:17:16.955Z,569
2018-09-26T12:18:16.929Z,582
2018-09-26T12:19:17.020Z,510
2018-09-26T12:20:16.941Z,545
2018-09-26T12:21:16.984Z,609
2018-09-26T12:22:17.087Z,629
2018-09-26T12:23:17.011Z,618
2018-09-26T12:24:16.942Z,583
2018-09-26T12:25:16.965Z,694
2018-09-26T12:26:16.971Z,736
2018-09-26T12:27:16.874Z,737
2018-09-26T12:28:17.048Z,692
2018-09-26T12:29:16.987Z,671
2018-09-26T12:30:16.978Z,638
2018-09-26T12:31:16.996Z,600
2018-09-26T12:32:17.002Z,609
2018-09-26T12:33:17.008Z,556
2018-09-26T12:34:16.984Z,577
2018-09-26T12:35:16.947Z,510
2018-09-26T12:36:17.045Z,500
2018-09-26T12:37:16.935Z,536
2018-09-26T12:38:16.985Z,532
2018-09-26T12:39:16.985Z,521
2018-09-26T12:40:17.015Z,548
2018-09-26T12:41:16.988Z,583
2018-09-26T12:42:16.975Z,638
2018-09-26T12:43:16.982Z,624
2018-09-26T12:44:16.983Z,641
2018-09-26T12:45:16.982Z,652
2018-09-26T12:46:17.092Z,620
2018-09-26T12:47:17.051Z,652
2018-09-26T12:48:17.032Z,653
2018-09-26T12:49:16.978Z,644
2018-09-26T12:50:16.904Z,702
2018-09-26T12:51:16.918Z,722
2018-09-26T12:52:16.991Z,681
2018-09-26T12:53:16.911Z,628
2018-09-26T12:54:16.914Z,668
2018-09-26T12:55:16.983Z,690
2018-09-26T12:56:16.881Z,699
2018-09-26T12:57:16.937Z,705
2018-09-26T12:58:16.978Z,670
2018-09-26T12:59:16.992Z,692
2018-09-26T13:00:16.957Z,688
2018-09-26T13:01:16.999Z,679
2018-09-26T13:02:17.083Z,669
2018-09-26T13:03:16.875Z,626
2018-09-26T13:04:17.096Z,625
2018-09-26T13:05:16.997Z,670
2018-09-26T13:06:17.027Z,653
2018-09-26T13:07:16.939Z,576
2018-09-26T13:08:16.882Z,389
2018-09-26T13:09:16.952Z,395
2018-09-26T13:10:16.996Z,431
2018-09-26T13:11:16.936Z,544
2018-09-26T13:12:17.026Z,604
2018-09-26T13:13:17.000Z,670
2018-09-26T13:14:16.959Z,645
2018-09-26T13:15:17.001Z,650
2018-09-26T13:16:16.918Z,679
2018-09-26T13:17:16.924Z,687
2018-09-26T13:18:16.979Z,644
2018-09-26T13:19:16.959Z,615
2018-09-26T13:20:17.034Z,601
2018-09-26T13:21:16.924Z,572
2018-09-26T13:22:17.073Z,631
2018-09-26T13:23:16.999Z,602
2018-09-26T13:24:17.031Z,636
2018-09-26T13:25:17.020Z,639
2018-09-26T13:26:16.960Z,619
2018-09-26T13:27:16.935Z,623
2018-09-26T13:28:17.020Z,626
2018-09-26T13:29:17.013Z,622
2018-09-26T13:30:17.013Z,610
2018-09-26T13:31:16.955Z,627
2018-09-26T13:32:17.150Z,627
2018-09-26T13:33:17.017Z,613
2018-09-26T13:34:17.028Z,622
2018-09-26T13:35:17.015Z,616
2018-09-26T13:36:16.988Z,616
2018-09-26T13:37:17.021Z,615
2018-09-26T13:38:17.139Z,614
2018-09-26T13:39:17.052Z,590
2018-09-26T13:40:16.993Z,594
2018-09-26T13:41:17.079Z,586
2018-09-26T13:42:16.963Z,583
2018-09-26T13:43:17.043Z,584
2018-09-26T13:44:17.061Z,572
2018-09-26T13:45:16.942Z,546
2018-09-26T13:46:17.018Z,561
2018-09-26T13:47:17.057Z,551
2018-09-26T13:48:17.113Z,525
2018-09-26T13:49:17.030Z,500
2018-09-26T13:50:16.993Z,491
2018-09-26T13:51:17.028Z,506
2018-09-26T13:52:17.105Z,492
2018-09-26T13:53:17.037Z,520
2018-09-26T13:54:17.021Z,545
2018-09-26T13:55:16.970Z,561
2018-09-26T13:56:17.071Z,558
2018-09-26T13:57:16.971Z,557
2018-09-26T13:58:17.044Z,557
2018-09-26T13:59:16.973Z,393
2018-09-26T14:00:17.123Z,331
2018-09-26T14:01:17.055Z,460
2018-09-26T14:02:17.120Z,459
2018-09-26T14:03:17.060Z,497
2018-09-26T14:04:17.071Z,518
2018-09-26T14:05:17.041Z,537
2018-09-26T14:06:16.958Z,518
2018-09-26T14:07:17.007Z,524
2018-09-26T14:08:17.075Z,536
2018-09-26T14:09:17.053Z,534
2018-09-26T14:10:17.067Z,536
2018-09-26T14:11:17.041Z,527